Time;durP1;ratioP1;P1;durP2;ratioP2;P2;SDS_P1;SDS_P2;PMS_P1;PMS_P2;Temp;Humidity;BMP_temperature;BMP_pressure;BME280_temperature;BME280_humidity;BME280_pressure;Samples;Min_cycle;Max_cycle;Signal;HPM_P1;HPM_P2
2022/12/01 00:03:57;;;;;;;13.48;11.48;;;;;;;;;;10279385;28;20059;-63
2022/12/01 00:14:18;;;;;;;17.33;11.52;;;;;;;;;;10278779;28;20528;-62
2022/12/01 00:19:17;;;;;;;14.02;11.45;;;;;;;;;;10277764;28;20080;-64
2022/12/01 00:24:15;;;;;;;15.70;11.60;;;;;;;;;;10278366;28;20094;-62
2022/12/01 00:29:13;;;;;;;14.45;12.13;;;;;;;;;;10277551;28;20472;-62
2022/12/01 00:34:21;;;;;;;19.52;12.93;;;;;;;;;;10277629;28;20040;-63
2022/12/01 00:39:19;;;;;;;14.27;10.98;;;;;;;;;;10277472;28;20077;-64
2022/12/01 00:44:17;;;;;;;21.00;13.40;;;;;;;;;;10276906;28;20095;-63
2022/12/01 00:49:17;;;;;;;16.75;11.85;;;;;;;;;;10276806;28;20502;-64
2022/12/01 00:54:15;;;;;;;19.00;11.95;;;;;;;;;;10276948;28;20082;-63
2022/12/01 00:59:13;;;;;;;15.88;11.65;;;;;;;;;;10275796;28;20076;-62
2022/12/01 01:04:11;;;;;;;15.32;12.00;;;;;;;;;;10276483;28;20076;-62
2022/12/01 01:09:11;;;;;;;16.25;12.10;;;;;;;;;;10248464;28;20482;-63
2022/12/01 01:14:10;;;;;;;18.95;12.48;;;;;;;;;;10235900;28;20492;-64
2022/12/01 01:19:08;;;;;;;14.13;11.23;;;;;;;;;;10235614;28;20077;-63
2022/12/01 01:24:06;;;;;;;13.85;10.02;;;;;;;;;;10235186;28;20533;-63
2022/12/01 01:29:07;;;;;;;16.45;11.88;;;;;;;;;;10235265;28;20077;-63
2022/12/01 01:34:05;;;;;;;15.48;10.68;;;;;;;;;;10234485;28;20644;-63
2022/12/01 01:39:03;;;;;;;13.18;11.05;;;;;;;;;;10234810;28;20084;-63
2022/12/01 01:44:02;;;;;;;17.10;13.23;;;;;;;;;;10234856;28;20096;-62
2022/12/01 01:49:04;;;;;;;14.35;12.32;;;;;;;;;;10234447;28;20046;-63
2022/12/01 01:54:03;;;;;;;18.17;12.95;;;;;;;;;;10234802;28;20083;-65
2022/12/01 01:59:02;;;;;;;21.15;13.27;;;;;;;;;;10234498;28;20080;-63
2022/12/01 02:04:02;;;;;;;22.10;13.93;;;;;;;;;;10234224;28;20081;-64
2022/12/01 02:09:01;;;;;;;22.60;16.02;;;;;;;;;;10234331;28;20046;-63
2022/12/01 02:14:03;;;;;;;17.60;14.50;;;;;;;;;;10240188;28;20426;-62
2022/12/01 02:19:08;;;;;;;20.38;15.82;;;;;;;;;;10242129;28;20049;-63
2022/12/01 02:24:27;;;;;;;23.33;16.48;;;;;;;;;;10242186;28;20364;-63
2022/12/01 02:29:46;;;;;;;23.33;15.80;;;;;;;;;;10257557;28;20077;-64
2022/12/01 02:34:54;;;;;;;26.23;15.30;;;;;;;;;;10298371;28;20515;-62
2022/12/01 02:39:56;;;;;;;21.65;15.60;;;;;;;;;;10281911;28;20072;-64
2022/12/01 02:44:56;;;;;;;24.17;16.33;;;;;;;;;;10281674;28;20065;-62
2022/12/01 02:49:57;;;;;;;21.45;16.80;;;;;;;;;;10282104;28;20049;-63
2022/12/01 02:54:56;;;;;;;20.30;14.68;;;;;;;;;;10281210;28;20072;-63
2022/12/01 02:59:55;;;;;;;20.40;14.63;;;;;;;;;;10281276;28;20087;-63
2022/12/01 03:04:57;;;;;;;25.08;16.10;;;;;;;;;;10281302;28;20642;-63
2022/12/01 03:09:59;;;;;;;23.60;15.07;;;;;;;;;;10280601;28;20063;-63
2022/12/01 03:15:02;;;;;;;20.42;14.70;;;;;;;;;;10280217;28;20159;-63
2022/12/01 03:20:07;;;;;;;20.23;15.23;;;;;;;;;;10280980;28;20422;-64
2022/12/01 03:25:07;;;;;;;18.88;16.15;;;;;;;;;;10279616;28;20041;-62
2022/12/01 03:30:09;;;;;;;22.60;16.50;;;;;;;;;;10280554;28;20037;-63
2022/12/01 03:35:13;;;;;;;21.15;17.95;;;;;;;;;;10280048;28;20040;-63
2022/12/01 03:40:16;;;;;;;26.35;18.42;;;;;;;;;;10280207;28;20084;-63
2022/12/01 03:45:16;;;;;;;43.83;30.35;;;;;;;;;;10279212;28;20052;-63
2022/12/01 03:50:17;;;;;;;27.55;19.60;;;;;;;;;;10280484;28;20044;-63
2022/12/01 03:55:19;;;;;;;32.58;23.73;;;;;;;;;;10279630;28;20068;-62
2022/12/01 04:00:18;;;;;;;25.90;20.00;;;;;;;;;;10278755;28;20068;-62
2022/12/01 04:05:18;;;;;;;21.70;16.60;;;;;;;;;;10278762;28;20414;-62
2022/12/01 04:10:22;;;;;;;22.77;16.52;;;;;;;;;;10279705;28;20106;-63
2022/12/01 04:15:20;;;;;;;34.38;22.70;;;;;;;;;;10278361;28;20462;-62
2022/12/01 04:20:20;;;;;;;21.85;17.23;;;;;;;;;;10278174;28;20072;-62
2022/12/01 04:25:18;;;;;;;25.27;17.38;;;;;;;;;;10277566;28;20048;-63
2022/12/01 04:30:17;;;;;;;25.20;18.23;;;;;;;;;;10276370;28;20045;-67
2022/12/01 04:35:15;;;;;;;35.25;22.00;;;;;;;;;;10276823;28;20041;-64
2022/12/01 04:40:15;;;;;;;24.42;18.60;;;;;;;;;;10277398;28;20083;-63
2022/12/01 04:45:13;;;;;;;24.60;18.42;;;;;;;;;;10277279;28;20806;-62
2022/12/01 04:50:11;;;;;;;43.03;25.67;;;;;;;;;;10276550;28;20065;-63
2022/12/01 04:55:10;;;;;;;28.52;18.90;;;;;;;;;;10273658;28;20490;-64
2022/12/01 05:00:12;;;;;;;40.33;29.25;;;;;;;;;;10276439;28;20083;-63
2022/12/01 05:05:10;;;;;;;27.73;19.33;;;;;;;;;;10252618;28;20069;-63
2022/12/01 05:10:09;;;;;;;22.30;16.45;;;;;;;;;;10235949;28;20115;-64
2022/12/01 05:15:07;;;;;;;21.75;16.77;;;;;;;;;;10274590;28;20064;-64
2022/12/01 05:25:23;;;;;;;21.80;16.58;;;;;;;;;;10270951;28;20495;-61
2022/12/01 05:30:21;;;;;;;27.75;19.23;;;;;;;;;;10260622;28;20084;-63
2022/12/01 05:35:27;;;;;;;38.78;23.45;;;;;;;;;;10239056;28;20499;-64
2022/12/01 05:40:25;;;;;;;41.13;28.67;;;;;;;;;;10232599;28;20072;-63
2022/12/01 05:45:23;;;;;;;34.85;26.58;;;;;;;;;;10235026;28;20041;-64
2022/12/01 05:50:21;;;;;;;35.60;26.08;;;;;;;;;;10232722;28;20056;-64
2022/12/01 05:55:21;;;;;;;40.20;30.25;;;;;;;;;;10233453;28;20049;-63
2022/12/01 06:00:19;;;;;;;41.40;27.88;;;;;;;;;;10236742;28;20513;-64
2022/12/01 06:05:18;;;;;;;38.75;26.48;;;;;;;;;;10264505;28;20057;-64
2022/12/01 06:10:16;;;;;;;50.55;35.03;;;;;;;;;;10273685;28;20052;-63
2022/12/01 06:15:16;;;;;;;32.28;24.85;;;;;;;;;;10266655;28;20529;-63
2022/12/01 06:20:14;;;;;;;47.33;31.73;;;;;;;;;;10252580;28;20521;-63
2022/12/01 06:25:12;;;;;;;28.73;20.52;;;;;;;;;;10254704;28;20057;-64
2022/12/01 06:30:11;;;;;;;26.73;19.05;;;;;;;;;;10254011;28;20045;-64
2022/12/01 06:35:11;;;;;;;32.10;22.67;;;;;;;;;;10248643;28;20164;-63
2022/12/01 06:40:10;;;;;;;36.50;24.52;;;;;;;;;;10251532;28;20069;-64
2022/12/01 06:45:09;;;;;;;25.17;18.85;;;;;;;;;;10251948;28;20045;-64
2022/12/01 06:50:09;;;;;;;26.13;19.60;;;;;;;;;;10252641;28;20084;-65
2022/12/01 06:55:09;;;;;;;24.92;16.60;;;;;;;;;;10252986;28;20040;-65
2022/12/01 07:00:08;;;;;;;25.75;18.05;;;;;;;;;;10254578;28;20080;-64
2022/12/01 07:05:06;;;;;;;25.83;18.48;;;;;;;;;;10262949;28;20052;-64
2022/12/01 07:10:05;;;;;;;26.83;18.92;;;;;;;;;;10281667;28;20081;-64
2022/12/01 07:15:06;;;;;;;19.35;14.88;;;;;;;;;;10265781;28;20088;-63
2022/12/01 07:20:05;;;;;;;20.70;16.38;;;;;;;;;;10264584;28;20073;-63
2022/12/01 07:25:03;;;;;;;18.35;14.95;;;;;;;;;;10242385;28;20065;-64
2022/12/01 07:30:02;;;;;;;30.52;20.55;;;;;;;;;;10239365;28;20076;-64
2022/12/01 07:35:01;;;;;;;37.55;24.55;;;;;;;;;;10240016;28;20513;-64
2022/12/01 07:39:59;;;;;;;21.40;15.02;;;;;;;;;;10267699;28;20069;-64
2022/12/01 07:44:57;;;;;;;28.05;20.20;;;;;;;;;;10255719;28;20068;-64
2022/12/01 07:49:56;;;;;;;44.40;30.88;;;;;;;;;;10238817;28;20045;-63
2022/12/01 07:54:58;;;;;;;18.88;15.98;;;;;;;;;;10238881;28;20515;-62
2022/12/01 07:59:56;;;;;;;17.75;13.80;;;;;;;;;;10236544;28;20085;-63
2022/12/01 08:04:54;;;;;;;22.17;16.88;;;;;;;;;;10237537;28;20480;-63
2022/12/01 08:09:52;;;;;;;29.52;21.35;;;;;;;;;;10235204;28;20504;-63
2022/12/01 08:14:55;;;;;;;21.27;15.45;;;;;;;;;;10235348;28;20907;-64
2022/12/01 08:19:53;;;;;;;19.38;16.80;;;;;;;;;;10236366;28;20562;-64
2022/12/01 08:24:51;;;;;;;17.83;14.98;;;;;;;;;;10237425;28;20052;-63
2022/12/01 08:29:49;;;;;;;18.58;13.10;;;;;;;;;;10237827;28;20073;-62
2022/12/01 08:34:49;;;;;;;22.80;15.77;;;;;;;;;;10237484;28;20088;-64
2022/12/01 08:39:50;;;;;;;22.83;15.45;;;;;;;;;;10236968;28;20076;-63
2022/12/01 08:44:49;;;;;;;16.80;14.48;;;;;;;;;;10235978;28;20056;-63
2022/12/01 08:49:48;;;;;;;31.67;20.70;;;;;;;;;;10237079;28;20036;-64
2022/12/01 08:54:47;;;;;;;43.85;33.83;;;;;;;;;;10237168;28;20053;-64
2022/12/01 08:59:45;;;;;;;24.02;18.67;;;;;;;;;;10236906;28;20088;-63
2022/12/01 09:04:44;;;;;;;20.88;15.00;;;;;;;;;;10236985;28;20050;-63
2022/12/01 09:09:44;;;;;;;16.90;14.05;;;;;;;;;;10235863;28;20557;-63
2022/12/01 09:14:46;;;;;;;16.33;13.30;;;;;;;;;;10236637;28;20053;-64
2022/12/01 09:19:45;;;;;;;15.23;13.32;;;;;;;;;;10235644;28;20084;-64
2022/12/01 09:24:45;;;;;;;22.98;16.67;;;;;;;;;;10235307;28;20065;-63
2022/12/01 09:29:43;;;;;;;21.20;15.48;;;;;;;;;;10235557;28;20439;-63
2022/12/01 09:34:41;;;;;;;23.65;16.38;;;;;;;;;;10235669;28;20515;-63
2022/12/01 09:39:39;;;;;;;21.48;15.88;;;;;;;;;;10235090;28;20080;-64
2022/12/01 09:44:41;;;;;;;34.00;23.30;;;;;;;;;;10234992;28;20483;-63
2022/12/01 09:49:44;;;;;;;27.88;20.80;;;;;;;;;;10235182;28;20061;-64
2022/12/01 09:54:42;;;;;;;20.58;16.05;;;;;;;;;;10234766;28;20045;-64
2022/12/01 09:59:42;;;;;;;17.45;13.00;;;;;;;;;;10235539;28;20077;-63
2022/12/01 10:04:42;;;;;;;23.08;17.05;;;;;;;;;;10233404;28;20049;-63
2022/12/01 10:09:43;;;;;;;17.85;15.88;;;;;;;;;;10234994;28;20049;-63
2022/12/01 10:14:44;;;;;;;16.70;14.75;;;;;;;;;;10233877;28;20069;-63
2022/12/01 10:19:47;;;;;;;18.02;14.25;;;;;;;;;;10234564;28;20081;-63
2022/12/01 10:24:53;;;;;;;17.48;13.80;;;;;;;;;;10234419;28;20048;-63
2022/12/01 10:29:56;;;;;;;28.45;19.33;;;;;;;;;;10234112;28;20042;-63
2022/12/01 10:34:54;;;;;;;24.17;19.33;;;;;;;;;;10239618;28;20072;-63
2022/12/01 10:39:53;;;;;;;16.67;14.98;;;;;;;;;;10241495;28;20526;-63
2022/12/01 10:44:53;;;;;;;20.05;15.40;;;;;;;;;;10241873;28;20503;-64
2022/12/01 10:49:53;;;;;;;18.95;14.77;;;;;;;;;;10242105;28;20069;-63
2022/12/01 10:54:51;;;;;;;25.48;17.00;;;;;;;;;;10242032;28;20085;-63
2022/12/01 10:59:51;;;;;;;19.20;16.20;;;;;;;;;;10240664;28;20103;-63
2022/12/01 11:04:52;;;;;;;21.27;16.77;;;;;;;;;;10241532;28;20046;-64
2022/12/01 11:09:59;;;;;;;22.70;14.43;;;;;;;;;;10240608;28;20068;-63
2022/12/01 11:14:58;;;;;;;16.42;12.88;;;;;;;;;;10240562;28;20057;-63
2022/12/01 11:19:56;;;;;;;33.05;19.80;;;;;;;;;;10239288;28;20490;-64
2022/12/01 11:25:04;;;;;;;18.48;13.52;;;;;;;;;;10240318;28;20065;-63
2022/12/01 11:30:05;;;;;;;18.23;14.60;;;;;;;;;;10240175;28;20045;-63
2022/12/01 11:35:04;;;;;;;12.20;10.43;;;;;;;;;;10239467;28;20088;-63
2022/12/01 11:40:13;;;;;;;16.30;12.35;;;;;;;;;;10239961;28;20494;-64
2022/12/01 11:45:21;;;;;;;39.78;23.10;;;;;;;;;;10239458;28;20073;-63
2022/12/01 11:50:38;;;;;;;29.30;21.17;;;;;;;;;;10238951;28;20069;-64
2022/12/01 11:55:40;;;;;;;22.00;14.32;;;;;;;;;;10240028;28;20060;-63
2022/12/01 12:00:43;;;;;;;18.10;15.05;;;;;;;;;;10239350;28;20077;-63
2022/12/01 12:05:57;;;;;;;19.02;15.73;;;;;;;;;;10239182;28;20076;-63
2022/12/01 12:11:18;;;;;;;18.00;14.07;;;;;;;;;;10238557;28;20065;-63
2022/12/01 12:16:20;;;;;;;14.48;11.38;;;;;;;;;;10238959;28;20084;-64
2022/12/01 12:21:23;;;;;;;10.27;9.25;;;;;;;;;;10238427;28;20084;-63
2022/12/01 12:26:25;;;;;;;12.98;11.57;;;;;;;;;;10238516;28;20080;-63
2022/12/01 12:31:28;;;;;;;15.45;13.60;;;;;;;;;;10238695;28;20080;-64
2022/12/01 12:36:29;;;;;;;24.42;20.52;;;;;;;;;;10237838;28;20046;-64
2022/12/01 12:41:34;;;;;;;29.70;24.38;;;;;;;;;;10237001;28;20519;-64
2022/12/01 12:46:37;;;;;;;18.38;16.27;;;;;;;;;;10238129;28;20056;-64
2022/12/01 12:51:40;;;;;;;15.17;12.37;;;;;;;;;;10237909;28;20720;-64
2022/12/01 12:56:40;;;;;;;20.63;15.65;;;;;;;;;;10235708;28;20049;-64
2022/12/01 13:01:40;;;;;;;17.25;14.23;;;;;;;;;;10237114;28;20092;-64
2022/12/01 13:06:41;;;;;;;12.43;11.23;;;;;;;;;;10249407;28;20044;-64
2022/12/01 13:11:44;;;;;;;16.48;13.63;;;;;;;;;;10276248;28;20093;-64
2022/12/01 13:16:44;;;;;;;21.25;16.48;;;;;;;;;;10277071;28;20052;-64
2022/12/01 13:21:43;;;;;;;22.38;17.13;;;;;;;;;;10277124;28;20536;-62
2022/12/01 13:26:45;;;;;;;21.77;17.63;;;;;;;;;;10276712;28;20635;-63
2022/12/01 13:31:44;;;;;;;22.33;16.60;;;;;;;;;;10276461;28;20517;-63
2022/12/01 13:36:48;;;;;;;17.48;14.35;;;;;;;;;;10276540;28;20433;-64
2022/12/01 13:41:56;;;;;;;23.70;18.98;;;;;;;;;;10276203;28;20477;-64
2022/12/01 13:46:57;;;;;;;24.77;20.73;;;;;;;;;;10274459;28;20049;-64
2022/12/01 13:52:14;;;;;;;45.30;31.33;;;;;;;;;;10275984;28;20053;-64
2022/12/01 13:57:25;;;;;;;17.92;14.93;;;;;;;;;;10276271;28;20496;-64
2022/12/01 14:02:24;;;;;;;17.65;14.82;;;;;;;;;;10275176;28;20529;-64
2022/12/01 14:07:35;;;;;;;18.20;13.00;;;;;;;;;;10279092;28;20115;-64
2022/12/01 14:12:37;;;;;;;19.35;15.40;;;;;;;;;;10283520;28;20060;-64
2022/12/01 14:17:37;;;;;;;27.40;19.70;;;;;;;;;;10282868;28;20544;-64
2022/12/01 14:22:38;;;;;;;21.60;19.13;;;;;;;;;;10283549;28;20414;-63
2022/12/01 14:27:38;;;;;;;27.88;20.85;;;;;;;;;;10283484;28;20079;-63
2022/12/01 14:32:37;;;;;;;27.92;19.73;;;;;;;;;;10283281;28;20068;-63
2022/12/01 14:37:37;;;;;;;22.23;17.90;;;;;;;;;;10283318;28;20057;-65
2022/12/01 14:47:56;;;;;;;41.47;28.70;;;;;;;;;;10283207;28;20059;-63
2022/12/01 14:52:57;;;;;;;22.48;16.65;;;;;;;;;;10281574;28;20073;-64
2022/12/01 14:58:03;;;;;;;18.73;16.63;;;;;;;;;;10282572;28;20072;-63
2022/12/01 15:03:04;;;;;;;18.42;15.48;;;;;;;;;;10280868;28;20052;-63
2022/12/01 15:08:14;;;;;;;18.25;14.52;;;;;;;;;;10296525;28;20045;-62
2022/12/01 15:13:33;;;;;;;25.67;19.15;;;;;;;;;;10281117;28;20084;-63
2022/12/01 15:18:33;;;;;;;35.20;28.05;;;;;;;;;;10279804;28;20551;-64
2022/12/01 15:23:32;;;;;;;26.88;24.08;;;;;;;;;;10280285;28;20076;-63
2022/12/01 15:28:31;;;;;;;16.65;14.60;;;;;;;;;;10279988;28;20049;-63
2022/12/01 15:33:30;;;;;;;17.42;14.05;;;;;;;;;;10273868;28;20069;-63
2022/12/01 15:38:36;;;;;;;18.23;16.13;;;;;;;;;;10268886;28;20073;-66
2022/12/01 15:43:38;;;;;;;25.38;20.73;;;;;;;;;;10250794;28;20543;-64
2022/12/01 15:48:37;;;;;;;56.08;39.72;;;;;;;;;;10262453;28;20041;-64
2022/12/01 15:53:37;;;;;;;60.55;37.13;;;;;;;;;;10258452;28;20171;-64
2022/12/01 15:58:40;;;;;;;58.92;25.73;;;;;;;;;;10279729;28;20057;-62
2022/12/01 16:03:48;;;;;;;26.42;16.40;;;;;;;;;;10276123;28;20053;-63
2022/12/01 16:08:54;;;;;;;23.42;16.40;;;;;;;;;;10277420;28;20053;-63
2022/12/01 16:14:00;;;;;;;15.90;13.95;;;;;;;;;;10277301;28;20056;-63
2022/12/01 16:18:58;;;;;;;;;;;;;;;;;;10278466;28;20085;-63
2022/12/01 16:24:02;;;;;;;89.35;31.17;;;;;;;;;;10277890;28;19976;-63
2022/12/01 16:29:00;;;;;;;34.22;22.13;;;;;;;;;;10278217;28;20084;-63
2022/12/01 16:34:02;;;;;;;22.77;20.35;;;;;;;;;;10278622;28;20084;-63
2022/12/01 16:39:21;;;;;;;21.83;17.60;;;;;;;;;;10276927;28;20084;-63
2022/12/01 16:44:19;;;;;;;14.98;13.30;;;;;;;;;;10277090;28;20471;-63
2022/12/01 16:49:26;;;;;;;22.63;18.65;;;;;;;;;;10277806;28;20048;-63
2022/12/01 16:54:27;;;;;;;32.50;28.35;;;;;;;;;;10277727;28;20514;-63
2022/12/01 16:59:25;;;;;;;22.63;18.67;;;;;;;;;;10276848;28;20052;-63
2022/12/01 17:04:23;;;;;;;16.77;14.85;;;;;;;;;;10277730;28;20091;-62
2022/12/01 17:09:22;;;;;;;31.25;25.00;;;;;;;;;;10276721;28;20099;-61
2022/12/01 17:14:22;;;;;;;50.60;34.80;;;;;;;;;;10277493;28;20064;-63
2022/12/01 17:19:20;;;;;;;15.13;13.30;;;;;;;;;;10277061;28;20041;-63
2022/12/01 17:24:18;;;;;;;39.05;23.90;;;;;;;;;;10276634;28;20065;-63
2022/12/01 17:29:16;;;;;;;29.83;21.65;;;;;;;;;;10276601;28;20053;-63
2022/12/01 17:34:16;;;;;;;26.92;20.80;;;;;;;;;;10275474;28;20045;-61
2022/12/01 17:39:14;;;;;;;40.75;28.80;;;;;;;;;;10275132;28;20041;-63
2022/12/01 17:44:12;;;;;;;72.40;36.20;;;;;;;;;;10275903;28;20514;-63
2022/12/01 17:49:12;;;;;;;24.38;18.52;;;;;;;;;;10275149;28;20052;-62
2022/12/01 17:54:11;;;;;;;53.00;38.45;;;;;;;;;;10276062;28;20545;-62
2022/12/01 17:59:09;;;;;;;45.85;31.25;;;;;;;;;;10275880;28;20479;-62
2022/12/01 18:04:08;;;;;;;54.47;37.63;;;;;;;;;;10274631;28;21853;-62
2022/12/01 18:09:06;;;;;;;24.45;17.20;;;;;;;;;;10274658;28;20080;-63
2022/12/01 18:14:05;;;;;;;20.08;17.35;;;;;;;;;;10275885;28;20160;-64
2022/12/01 18:19:04;;;;;;;20.63;16.27;;;;;;;;;;10275857;28;20068;-62
2022/12/01 18:24:03;;;;;;;31.95;22.75;;;;;;;;;;10275367;28;20087;-63
2022/12/01 18:29:03;;;;;;;20.35;15.80;;;;;;;;;;10275950;28;20056;-63
2022/12/01 18:34:03;;;;;;;15.98;14.18;;;;;;;;;;10275264;28;20521;-62
2022/12/01 18:39:02;;;;;;;32.17;24.83;;;;;;;;;;10274021;28;20048;-63
2022/12/01 18:44:00;;;;;;;25.75;20.20;;;;;;;;;;10274980;28;20084;-63
2022/12/01 18:49:00;;;;;;;14.98;12.65;;;;;;;;;;10274914;28;20083;-62
2022/12/01 18:54:01;;;;;;;21.40;16.17;;;;;;;;;;10277460;28;20069;-63
2022/12/01 18:59:00;;;;;;;16.27;14.35;;;;;;;;;;10282314;28;20053;-63
2022/12/01 19:03:58;;;;;;;31.55;20.73;;;;;;;;;;10281819;28;20083;-63
2022/12/01 19:08:59;;;;;;;19.25;16.88;;;;;;;;;;10279870;28;20057;-63
2022/12/01 19:13:59;;;;;;;74.70;44.53;;;;;;;;;;10281487;28;20060;-63
2022/12/01 19:19:00;;;;;;;18.88;14.63;;;;;;;;;;10281457;28;20498;-63
2022/12/01 19:23:58;;;;;;;24.73;18.50;;;;;;;;;;10279491;28;20516;-63
2022/12/01 19:28:58;;;;;;;15.73;12.68;;;;;;;;;;10281015;28;20045;-63
2022/12/01 19:34:15;;;;;;;21.98;17.92;;;;;;;;;;10284136;28;20057;-63
2022/12/01 19:39:14;;;;;;;19.58;14.43;;;;;;;;;;10279327;28;20044;-63
2022/12/01 19:44:12;;;;;;;24.55;18.38;;;;;;;;;;10278472;28;20434;-63
2022/12/01 19:49:10;;;;;;;19.92;15.70;;;;;;;;;;10279946;28;20056;-63
2022/12/01 19:54:12;;;;;;;26.33;19.92;;;;;;;;;;10276482;28;20098;-64
2022/12/01 19:59:11;;;;;;;15.77;12.60;;;;;;;;;;10256935;28;20060;-63
2022/12/01 20:04:10;;;;;;;16.63;13.43;;;;;;;;;;10255367;28;20060;-64
2022/12/01 20:09:09;;;;;;;13.98;11.05;;;;;;;;;;10261143;28;20719;-64
2022/12/01 20:14:09;;;;;;;16.15;12.43;;;;;;;;;;10251029;28;20095;-64
2022/12/01 20:19:08;;;;;;;11.25;10.15;;;;;;;;;;10254142;28;20081;-65
2022/12/01 20:24:07;;;;;;;12.60;11.30;;;;;;;;;;10238599;28;20084;-64
2022/12/01 20:29:08;;;;;;;10.30;9.02;;;;;;;;;;10268971;28;20462;-63
2022/12/01 20:34:08;;;;;;;9.40;8.50;;;;;;;;;;10256685;28;20068;-63
2022/12/01 20:39:07;;;;;;;13.75;10.13;;;;;;;;;;10249627;28;20477;-64
2022/12/01 20:44:07;;;;;;;18.48;11.13;;;;;;;;;;10250292;28;20495;-64
2022/12/01 20:49:05;;;;;;;20.05;15.45;;;;;;;;;;10261503;28;20045;-64
2022/12/01 20:54:04;;;;;;;11.45;9.68;;;;;;;;;;10254085;28;20068;-64
2022/12/01 20:59:24;;;;;;;8.98;7.82;;;;;;;;;;10246971;28;20088;-64
2022/12/01 21:04:22;;;;;;;20.88;13.05;;;;;;;;;;10258565;28;20061;-64
2022/12/01 21:09:20;;;;;;;17.85;12.38;;;;;;;;;;10235035;28;20507;-64
2022/12/01 21:14:21;;;;;;;15.15;11.73;;;;;;;;;;10236960;28;20088;-64
2022/12/01 21:19:24;;;;;;;17.80;11.65;;;;;;;;;;10235975;28;20073;-64
2022/12/01 21:24:26;;;;;;;14.77;10.35;;;;;;;;;;10245307;28;20076;-63
2022/12/01 21:29:37;;;;;;;10.70;8.15;;;;;;;;;;10255954;28;20068;-63
2022/12/01 21:34:36;;;;;;;11.98;9.68;;;;;;;;;;10236023;28;20041;-63
2022/12/01 21:39:35;;;;;;;23.52;13.80;;;;;;;;;;10235917;28;20052;-64
2022/12/01 21:44:36;;;;;;;27.05;16.05;;;;;;;;;;10235724;28;20073;-64
2022/12/01 21:49:35;;;;;;;19.88;11.23;;;;;;;;;;10235796;28;20080;-64
2022/12/01 21:54:35;;;;;;;32.85;13.50;;;;;;;;;;10235469;28;20068;-64
2022/12/01 21:59:33;;;;;;;15.80;11.20;;;;;;;;;;10233799;28;20419;-64
2022/12/01 22:04:31;;;;;;;9.25;8.18;;;;;;;;;;10235260;28;20164;-64
2022/12/01 22:09:31;;;;;;;10.05;7.18;;;;;;;;;;10235345;28;20085;-64
2022/12/01 22:14:33;;;;;;;9.90;8.30;;;;;;;;;;10235818;28;20057;-64
2022/12/01 22:19:32;;;;;;;10.98;8.02;;;;;;;;;;10235095;28;20045;-64
2022/12/01 22:24:37;;;;;;;9.50;7.55;;;;;;;;;;10235030;28;20084;-62
2022/12/01 22:29:40;;;;;;;12.45;8.60;;;;;;;;;;10240079;28;20086;-63
2022/12/01 22:34:38;;;;;;;8.68;6.82;;;;;;;;;;10242635;28;20088;-64
2022/12/01 22:39:36;;;;;;;13.57;9.35;;;;;;;;;;10242752;28;20450;-64
2022/12/01 22:44:36;;;;;;;17.38;12.50;;;;;;;;;;10242426;28;20452;-64
2022/12/01 22:49:34;;;;;;;11.35;8.75;;;;;;;;;;10242470;28;20490;-64
2022/12/01 22:54:33;;;;;;;7.93;7.13;;;;;;;;;;10268836;28;20045;-64
2022/12/01 22:59:33;;;;;;;9.02;7.35;;;;;;;;;;10281843;28;20077;-64
2022/12/01 23:04:33;;;;;;;8.52;7.10;;;;;;;;;;10281983;28;20080;-64
2022/12/01 23:09:34;;;;;;;8.77;7.65;;;;;;;;;;10282120;28;20099;-63
2022/12/01 23:14:32;;;;;;;9.68;8.25;;;;;;;;;;10281616;28;20045;-64
2022/12/01 23:19:33;;;;;;;8.88;7.90;;;;;;;;;;10259499;28;20041;-63
2022/12/01 23:24:31;;;;;;;8.82;7.60;;;;;;;;;;10260874;28;20072;-63
2022/12/01 23:29:31;;;;;;;11.68;8.95;;;;;;;;;;10255693;28;20065;-63
2022/12/01 23:34:29;;;;;;;12.60;8.57;;;;;;;;;;10240616;28;20057;-63
2022/12/01 23:39:31;;;;;;;8.50;7.20;;;;;;;;;;10239772;28;20060;-63
2022/12/01 23:44:36;;;;;;;9.35;7.80;;;;;;;;;;10240163;28;20084;-65
2022/12/01 23:49:35;;;;;;;8.90;8.00;;;;;;;;;;10240333;28;20049;-64
2022/12/01 23:54:34;;;;;;;7.85;7.05;;;;;;;;;;10239796;28;20067;-64
2022/12/01 23:59:33;;;;;;;8.98;6.93;;;;;;;;;;10239639;28;20079;-63
